Time,TemperatureF,DewpointF,PressureIn,WindDirection,WindDirectionDegrees,WindSpeedMPH,WindSpeedGustMPH,Humidity,HourlyPrecipIn,Conditions,Clouds,dailyrainin,SoftwareType,DateUTC
2013-04-04 00:00:00,64.4,62.6,30.07,NNE,31,5.0,14.0,94,0.01,,---,0.17,VWS V14.01,2013-04-04 04:00:00,
2013-04-04 01:00:00,64.6,62.8,30.07,East,86,2.0,11.0,94,0.02,,---,0.01,VWS V14.01,2013-04-04 05:00:00,
2013-04-04 02:00:00,64.7,63.2,30.04,ESE,105,8.0,12.0,95,0.03,,---,0.03,VWS V14.01,2013-04-04 06:00:00,
2013-04-04 03:00:00,64.7,63.2,30.01,ESE,107,8.0,16.0,95,0.03,,---,0.04,VWS V14.01,2013-04-04 07:00:00,
2013-04-04 04:00:00,64.9,63.4,29.98,ESE,105,8.0,15.0,95,0.02,,---,0.05,VWS V14.01,2013-04-04 08:00:00,
2013-04-04 05:00:00,65.0,63.2,29.97,East,96,5.0,14.0,94,0.02,,---,0.06,VWS V14.01,2013-04-04 09:00:00,
2013-04-04 06:00:00,65.5,63.7,29.96,East,84,6.0,11.0,94,0.01,,---,0.06,VWS V14.01,2013-04-04 10:00:00,
2013-04-04 07:00:00,65.5,64.0,29.97,NE,34,2.0,8.0,95,0.00,,---,0.06,VWS V14.01,2013-04-04 11:00:00,
2013-04-04 08:00:00,66.2,64.7,29.97,ESE,119,2.0,10.0,95,0.08,,---,0.14,VWS V14.01,2013-04-04 12:00:00,
2013-04-04 09:00:00,66.2,64.7,29.96,ESE,111,0.0,8.0,95,0.26,,---,0.32,VWS V14.01,2013-04-04 13:00:00,
2013-04-04 10:00:00,66.0,64.8,29.95,SE,125,0.0,5.0,96,0.18,,---,0.32,VWS V14.01,2013-04-04 14:00:00,
2013-04-04 11:00:00,67.1,65.6,29.95,SE,140,4.0,8.0,95,0.00,,---,0.32,VWS V14.01,2013-04-04 15:00:00,
2013-04-04 12:00:00,67.7,65.9,29.94,ESE,121,3.0,7.0,94,0.00,,---,0.32,VWS V14.01,2013-04-04 16:00:00,
2013-04-04 13:00:00,75.4,68.8,29.93,South,181,4.0,21.0,80,0.00,,---,0.32,VWS V14.01,2013-04-04 17:00:00,
2013-04-04 14:00:00,76.2,67.7,29.90,South,173,11.0,17.0,75,0.00,,---,0.32,VWS V14.01,2013-04-04 18:00:00,
2013-04-04 15:00:00,76.7,65.8,29.89,SSW,194,16.0,21.0,69,0.00,,---,0.32,VWS V14.01,2013-04-04 19:00:00,
2013-04-04 16:00:00,75.6,65.9,29.86,SW,228,7.0,20.0,72,0.00,,---,0.32,VWS V14.01,2013-04-04 20:00:00,
2013-04-04 17:00:00,75.3,66.1,29.86,SSW,196,17.0,25.0,73,0.00,,---,0.32,VWS V14.01,2013-04-04 21:00:00,
2013-04-04 18:00:00,74.5,64.9,29.86,SW,223,4.0,24.0,72,0.00,,---,0.32,VWS V14.01,2013-04-04 22:00:00,
2013-04-04 19:00:00,73.5,64.7,29.86,SW,226,2.0,20.0,74,0.00,,---,0.32,VWS V14.01,2013-04-04 23:00:00,
2013-04-04 20:00:00,71.8,64.2,29.85,WSW,250,4.0,12.0,77,0.00,,---,0.32,VWS V14.01,2013-04-05 00:00:00,
2013-04-04 21:00:00,70.8,64.3,29.88,SW,231,3.0,10.0,80,0.00,,---,0.32,VWS V14.01,2013-04-05 01:00:00,
2013-04-04 22:00:00,69.7,64.3,29.89,WSW,250,1.0,8.0,83,0.00,,---,0.32,VWS V14.01,2013-04-05 02:00:00,
2013-04-04 23:00:00,68.9,64.2,29.90,West,263,0.0,5.0,85,0.00,,---,0.32,VWS V14.01,2013-04-05 03:00:00,